Time;durP1;ratioP1;P1;durP2;ratioP2;P2;SDS_P1;SDS_P2;PMS_P1;PMS_P2;Temp;Humidity;BMP_temperature;BMP_pressure;BME280_temperature;BME280_humidity;BME280_pressure;Samples;Min_cycle;Max_cycle;Signal;HPM_P1;HPM_P2
2023/03/12 00:01:39;;;;;;;4.53;1.70;;;1.00;99.90;;;;;;5086253;28;20406;-77
2023/03/12 00:04:04;;;;;;;6.22;1.77;;;1.00;99.90;;;;;;5088371;28;20452;-77
2023/03/12 00:06:30;;;;;;;5.15;1.65;;;1.00;99.90;;;;;;5089112;28;20501;-77
2023/03/12 00:08:57;;;;;;;5.80;1.80;;;1.00;99.90;;;;;;5084598;28;20558;-77
2023/03/12 00:11:23;;;;;;;2.80;1.45;;;1.00;99.90;;;;;;5085489;28;20529;-77
2023/03/12 00:13:51;;;;;;;6.17;1.83;;;1.00;99.90;;;;;;5072497;28;20505;-77
2023/03/12 00:16:17;;;;;;;6.32;1.83;;;1.00;99.90;;;;;;5090577;28;20400;-77
2023/03/12 00:18:43;;;;;;;4.93;1.70;;;1.00;99.90;;;;;;5108142;28;20439;-77
2023/03/12 00:21:09;;;;;;;4.25;1.77;;;1.00;99.90;;;;;;5088841;28;20489;-75
2023/03/12 00:23:36;;;;;;;5.63;1.50;;;1.00;99.90;;;;;;5089881;28;20485;-76
2023/03/12 00:26:04;;;;;;;6.25;1.50;;;0.90;99.90;;;;;;5087923;28;20414;-74
2023/03/12 00:28:30;;;;;;;3.25;1.30;;;0.90;99.90;;;;;;5089644;28;20417;-75
2023/03/12 00:30:57;;;;;;;5.25;1.60;;;0.80;99.90;;;;;;5075981;28;20402;-76
2023/03/12 00:33:24;;;;;;;5.35;1.73;;;0.80;99.90;;;;;;5089741;28;20401;-76
2023/03/12 00:35:50;;;;;;;5.63;1.52;;;0.80;99.90;;;;;;5075972;28;20915;-76
2023/03/12 00:38:16;;;;;;;4.13;1.40;;;0.70;99.90;;;;;;5088209;28;20937;-76
2023/03/12 00:40:42;;;;;;;7.60;1.77;;;0.70;99.90;;;;;;5089986;28;20493;-76
2023/03/12 00:43:07;;;;;;;3.25;1.60;;;0.70;99.90;;;;;;5089629;28;20895;-77
2023/03/12 00:45:33;;;;;;;5.35;1.55;;;0.70;99.90;;;;;;5089213;28;20459;-76
2023/03/12 00:47:58;;;;;;;6.77;1.60;;;0.60;99.90;;;;;;5089943;28;20447;-77
2023/03/12 00:50:24;;;;;;;8.77;1.45;;;0.60;99.90;;;;;;5089306;28;20410;-76
2023/03/12 00:52:50;;;;;;;4.10;1.52;;;0.60;99.90;;;;;;5089360;28;20401;-76
2023/03/12 00:55:15;;;;;;;6.60;2.10;;;0.60;99.90;;;;;;5089890;28;20900;-75
2023/03/12 00:57:41;;;;;;;4.40;1.47;;;0.60;99.90;;;;;;5087712;28;20440;-76
2023/03/12 01:00:09;;;;;;;6.03;1.80;;;0.50;99.90;;;;;;5076018;28;20440;-75
2023/03/12 01:02:39;;;;;;;7.40;1.83;;;0.50;99.90;;;;;;5086945;28;20440;-76
2023/03/12 01:05:07;;;;;;;3.15;1.35;;;0.50;99.90;;;;;;5088948;28;20413;-76
2023/03/12 01:07:35;;;;;;;4.30;1.55;;;0.50;99.90;;;;;;5077402;28;20574;-76
2023/03/12 01:10:00;;;;;;;5.23;1.40;;;0.40;99.90;;;;;;5059927;28;20504;-76
2023/03/12 01:12:26;;;;;;;3.90;1.47;;;0.50;99.90;;;;;;5091354;28;20410;-76
2023/03/12 01:14:51;;;;;;;6.22;1.80;;;0.40;99.90;;;;;;5088648;28;20911;-77
2023/03/12 01:17:17;;;;;;;4.27;1.80;;;0.40;99.90;;;;;;5087183;28;20500;-77
2023/03/12 01:19:43;;;;;;;5.13;2.00;;;0.30;99.90;;;;;;5088332;28;20777;-77
2023/03/12 01:22:08;;;;;;;5.43;1.60;;;0.30;99.90;;;;;;5070490;28;20425;-77
2023/03/12 01:24:34;;;;;;;4.57;1.60;;;0.30;99.90;;;;;;5087612;28;20410;-77
2023/03/12 01:26:59;;;;;;;8.03;2.30;;;0.30;99.90;;;;;;5087235;28;20459;-76
2023/03/12 01:29:25;;;;;;;4.72;1.55;;;0.30;99.90;;;;;;5069372;28;20786;-75
2023/03/12 01:31:51;;;;;;;5.53;1.40;;;0.30;99.90;;;;;;5091478;28;20432;-76
2023/03/12 01:34:17;;;;;;;3.90;1.40;;;0.30;99.90;;;;;;5080031;28;20475;-75
2023/03/12 01:36:43;;;;;;;4.20;1.60;;;0.30;99.90;;;;;;5087409;28;20450;-76
2023/03/12 01:39:10;;;;;;;3.65;1.50;;;0.20;99.90;;;;;;5087599;28;20796;-76
2023/03/12 01:41:36;;;;;;;3.38;1.60;;;0.20;99.90;;;;;;5086655;28;20405;-76
2023/03/12 01:44:03;;;;;;;3.60;1.40;;;0.30;99.90;;;;;;5091208;28;20469;-76
2023/03/12 01:46:34;;;;;;;4.88;1.45;;;0.30;99.90;;;;;;5068983;28;20780;-77
2023/03/12 01:49:25;;;;;;;4.75;1.33;;;0.20;99.90;;;;;;5086942;28;20418;-77
2023/03/12 01:52:31;;;;;;;3.85;1.45;;;0.20;99.90;;;;;;5075149;28;20486;-76
2023/03/12 01:55:10;;;;;;;5.07;1.87;;;0.20;99.90;;;;;;5087907;28;20435;-76
2023/03/12 01:57:45;;;;;;;5.70;1.60;;;0.20;99.90;;;;;;5090566;28;20445;-78
2023/03/12 02:00:18;;;;;;;4.83;1.60;;;0.20;99.90;;;;;;5086592;28;20550;-77
2023/03/12 02:02:45;;;;;;;5.60;1.67;;;0.20;99.90;;;;;;5087945;28;20594;-75
2023/03/12 02:05:20;;;;;;;3.22;1.45;;;0.20;99.90;;;;;;5085383;28;20854;-76
2023/03/12 02:07:46;;;;;;;4.30;1.70;;;0.20;99.90;;;;;;5080695;28;20410;-76
2023/03/12 02:10:11;;;;;;;3.50;1.60;;;0.20;99.90;;;;;;5088564;28;20771;-76
2023/03/12 02:12:37;;;;;;;5.93;1.73;;;0.20;99.90;;;;;;5088515;28;20398;-75
2023/03/12 02:15:04;;;;;;;4.57;1.80;;;0.20;99.90;;;;;;5089178;28;20477;-78
2023/03/12 02:17:30;;;;;;;5.40;1.80;;;0.20;99.90;;;;;;5088300;28;20760;-77
2023/03/12 02:20:24;;;;;;;4.53;1.77;;;0.20;99.90;;;;;;5087156;28;20435;-77
2023/03/12 02:23:22;;;;;;;4.57;1.67;;;0.30;99.90;;;;;;5088016;28;20499;-78
2023/03/12 02:25:51;;;;;;;5.68;1.75;;;0.30;99.90;;;;;;5056759;28;20654;-77
2023/03/12 02:28:21;;;;;;;6.13;1.55;;;0.30;99.90;;;;;;5086800;28;20395;-78
2023/03/12 02:30:51;;;;;;;7.20;1.95;;;0.40;99.90;;;;;;5088329;28;20491;-78
2023/03/12 02:33:17;;;;;;;6.80;1.63;;;0.40;99.90;;;;;;5088578;28;20448;-78
2023/03/12 02:35:45;;;;;;;5.32;1.30;;;0.40;99.90;;;;;;5089950;28;20402;-77
2023/03/12 02:38:36;;;;;;;5.47;1.92;;;0.50;99.90;;;;;;5091333;28;20497;-77
2023/03/12 02:41:23;;;;;;;6.00;2.00;;;0.50;99.90;;;;;;5092433;28;20729;-77
2023/03/12 02:43:57;;;;;;;3.45;1.50;;;0.50;99.90;;;;;;5089595;28;20410;-77
2023/03/12 02:46:22;;;;;;;7.57;2.03;;;0.50;99.90;;;;;;5089085;28;20755;-77
2023/03/12 02:48:49;;;;;;;2.90;1.70;;;0.50;99.90;;;;;;5090743;28;20400;-77
2023/03/12 02:51:14;;;;;;;4.05;1.40;;;0.50;99.90;;;;;;5089161;28;20417;-77
2023/03/12 02:53:40;;;;;;;4.87;1.60;;;0.40;99.90;;;;;;5087118;28;20747;-77
2023/03/12 02:56:06;;;;;;;5.38;1.67;;;0.40;99.90;;;;;;5088317;28;20437;-77
2023/03/12 02:58:31;;;;;;;5.45;1.50;;;0.40;99.90;;;;;;5087532;28;20512;-77
2023/03/12 03:00:57;;;;;;;3.97;1.43;;;0.40;99.90;;;;;;5088467;28;20433;-77
2023/03/12 03:03:23;;;;;;;5.47;1.30;;;0.40;99.90;;;;;;5088019;28;20405;-77
2023/03/12 03:05:49;;;;;;;4.93;1.90;;;0.50;99.90;;;;;;5086530;28;20403;-77
2023/03/12 03:08:14;;;;;;;4.72;1.33;;;0.50;99.90;;;;;;5087493;28;20540;-77
2023/03/12 03:10:40;;;;;;;3.70;1.50;;;0.50;99.90;;;;;;5092678;28;20394;-77
2023/03/12 03:13:06;;;;;;;5.73;1.83;;;0.50;99.90;;;;;;5094346;28;20898;-77
2023/03/12 03:15:31;;;;;;;5.43;1.73;;;0.50;99.90;;;;;;5095125;28;20497;-77
2023/03/12 03:17:57;;;;;;;4.25;1.85;;;0.50;99.90;;;;;;5095597;28;20416;-77
2023/03/12 03:20:24;;;;;;;7.33;2.00;;;0.50;99.90;;;;;;5094730;28;20493;-77
2023/03/12 03:22:50;;;;;;;4.05;1.58;;;0.40;99.90;;;;;;5089592;28;20401;-77
2023/03/12 03:25:17;;;;;;;6.57;1.70;;;0.40;99.90;;;;;;5090027;28;20409;-77
2023/03/12 03:27:42;;;;;;;4.30;1.80;;;0.40;99.90;;;;;;5096252;28;20763;-77
2023/03/12 03:30:09;;;;;;;6.93;1.60;;;0.40;99.90;;;;;;5095744;28;20405;-77
2023/03/12 03:32:34;;;;;;;3.60;1.50;;;0.40;99.90;;;;;;5100469;28;20392;-77
2023/03/12 03:35:00;;;;;;;5.10;1.77;;;0.40;99.90;;;;;;5095645;28;20412;-78
2023/03/12 03:37:26;;;;;;;6.80;1.65;;;0.40;99.90;;;;;;5090738;28;20408;-78
2023/03/12 03:39:51;;;;;;;5.45;1.83;;;0.50;99.90;;;;;;5090821;28;20536;-77
2023/03/12 03:42:17;;;;;;;4.57;1.70;;;0.50;99.90;;;;;;5092041;28;20417;-77
2023/03/12 03:44:43;;;;;;;5.45;2.22;;;0.50;99.90;;;;;;5090971;28;20398;-77
2023/03/12 03:47:08;;;;;;;3.72;1.85;;;0.50;99.90;;;;;;5062975;28;20404;-77
2023/03/12 03:49:34;;;;;;;7.03;1.97;;;0.60;99.90;;;;;;5090520;28;20825;-77
2023/03/12 03:52:00;;;;;;;4.93;2.00;;;0.60;99.90;;;;;;5091056;28;20398;-77
2023/03/12 03:54:25;;;;;;;4.93;1.83;;;0.60;99.90;;;;;;5084142;28;20404;-77
2023/03/12 03:56:51;;;;;;;5.27;2.10;;;0.60;99.90;;;;;;5086660;28;20413;-77
2023/03/12 03:59:16;;;;;;;5.38;1.83;;;0.60;99.90;;;;;;5076320;28;20430;-77
2023/03/12 04:01:42;;;;;;;5.57;1.90;;;0.60;99.90;;;;;;5092411;28;20833;-77
2023/03/12 04:04:08;;;;;;;5.17;1.87;;;0.60;99.90;;;;;;5088903;28;20427;-77
2023/03/12 04:06:34;;;;;;;4.18;1.77;;;0.60;99.90;;;;;;5090557;28;20477;-77
2023/03/12 04:08:59;;;;;;;3.92;1.88;;;0.60;99.90;;;;;;5089052;28;20459;-76
2023/03/12 04:11:25;;;;;;;4.03;1.83;;;0.60;99.90;;;;;;5095291;28;20481;-76
2023/03/12 04:13:51;;;;;;;7.80;2.17;;;0.60;99.90;;;;;;5090245;28;20418;-77
2023/03/12 04:16:17;;;;;;;5.35;1.77;;;0.60;99.90;;;;;;5077349;28;20918;-76
2023/03/12 04:18:43;;;;;;;3.70;1.50;;;0.60;99.90;;;;;;5080856;28;20511;-77
2023/03/12 04:21:11;;;;;;;4.38;1.88;;;0.60;99.90;;;;;;5089279;28;20404;-77
2023/03/12 04:23:37;;;;;;;6.68;1.80;;;0.70;99.90;;;;;;5088687;28;20402;-77
2023/03/12 04:26:04;;;;;;;5.47;1.48;;;0.70;99.90;;;;;;5090849;28;20416;-77
2023/03/12 04:28:29;;;;;;;6.07;1.80;;;0.70;99.90;;;;;;5089182;28;20455;-77
2023/03/12 04:31:00;;;;;;;6.78;1.77;;;0.70;99.90;;;;;;5090830;28;20809;-77
2023/03/12 04:33:27;;;;;;;4.15;1.50;;;0.70;99.90;;;;;;5089739;28;20485;-76
2023/03/12 04:35:53;;;;;;;5.13;2.00;;;0.70;99.90;;;;;;5074444;28;20453;-76
2023/03/12 04:38:20;;;;;;;6.68;2.05;;;0.80;99.90;;;;;;5087943;28;20927;-76
2023/03/12 04:40:46;;;;;;;5.05;1.70;;;0.80;99.90;;;;;;5091795;28;20471;-76
2023/03/12 04:43:12;;;;;;;5.50;1.38;;;0.80;99.90;;;;;;5075907;28;20490;-76
2023/03/12 04:45:38;;;;;;;4.18;1.73;;;0.80;99.90;;;;;;5092489;28;20435;-77
2023/03/12 04:48:05;;;;;;;4.63;1.87;;;0.90;99.90;;;;;;5088521;28;20868;-76
2023/03/12 04:50:30;;;;;;;3.75;1.80;;;0.90;99.90;;;;;;5089669;28;20437;-76
2023/03/12 04:52:56;;;;;;;5.70;1.95;;;0.90;99.90;;;;;;5090101;28;20899;-76
2023/03/12 04:55:22;;;;;;;7.82;2.10;;;0.90;99.90;;;;;;5089123;28;20853;-76
2023/03/12 04:57:47;;;;;;;4.43;1.93;;;0.90;99.90;;;;;;5089199;28;20803;-76
2023/03/12 05:00:14;;;;;;;7.63;2.00;;;0.90;99.90;;;;;;5091688;28;20403;-76
2023/03/12 05:02:40;;;;;;;4.35;1.90;;;1.00;99.90;;;;;;5071168;28;20409;-76
2023/03/12 05:05:07;;;;;;;5.75;2.42;;;1.00;99.90;;;;;;5089430;28;20398;-76
2023/03/12 05:07:34;;;;;;;6.22;1.70;;;1.00;99.90;;;;;;5088190;28;20492;-76
2023/03/12 05:09:59;;;;;;;7.32;2.13;;;1.00;99.90;;;;;;5088802;28;20463;-76
2023/03/12 05:12:25;;;;;;;5.03;2.17;;;1.00;99.90;;;;;;5087947;28;20406;-76
2023/03/12 05:14:51;;;;;;;5.20;2.00;;;1.00;99.90;;;;;;5087810;28;20780;-76
2023/03/12 05:17:16;;;;;;;6.78;2.25;;;1.00;99.90;;;;;;5088903;28;20784;-77
2023/03/12 05:19:42;;;;;;;5.97;1.90;;;1.00;99.90;;;;;;5087649;28;20430;-77
2023/03/12 05:22:08;;;;;;;5.30;2.05;;;1.00;99.90;;;;;;5088409;28;20414;-77
2023/03/12 05:24:34;;;;;;;3.63;1.73;;;1.00;99.90;;;;;;5088035;28;20405;-77
2023/03/12 05:27:00;;;;;;;5.03;2.20;;;1.00;99.90;;;;;;5089436;28;20402;-76
2023/03/12 05:29:25;;;;;;;7.05;2.33;;;1.00;99.90;;;;;;5087579;28;20436;-76
2023/03/12 05:31:51;;;;;;;4.70;2.35;;;1.00;99.90;;;;;;5093605;28;20402;-76
2023/03/12 05:34:17;;;;;;;6.50;2.03;;;1.00;99.90;;;;;;5093979;28;20400;-76
2023/03/12 05:36:43;;;;;;;4.43;2.10;;;1.10;99.90;;;;;;5090987;28;20406;-76
2023/03/12 05:39:08;;;;;;;7.20;2.15;;;1.00;99.90;;;;;;5080461;28;20503;-76
2023/03/12 05:41:34;;;;;;;4.18;2.08;;;1.00;99.90;;;;;;5092422;28;20807;-76
2023/03/12 05:44:00;;;;;;;5.87;2.03;;;1.00;99.90;;;;;;5087600;28;20401;-76
2023/03/12 05:46:26;;;;;;;4.25;1.67;;;1.00;99.90;;;;;;5086836;28;20398;-76
2023/03/12 05:48:52;;;;;;;8.63;2.40;;;1.10;99.90;;;;;;5088299;28;21642;-76
2023/03/12 05:51:19;;;;;;;5.88;2.40;;;1.10;99.90;;;;;;5088349;28;20492;-76
2023/03/12 05:53:44;;;;;;;6.35;2.55;;;1.10;99.90;;;;;;5088487;28;20401;-77
2023/03/12 05:56:13;;;;;;;5.53;2.20;;;1.10;99.90;;;;;;5077198;28;20402;-76
2023/03/12 05:58:40;;;;;;;4.60;2.38;;;1.10;99.90;;;;;;5087017;28;20953;-77
2023/03/12 06:01:21;;;;;;;4.75;2.33;;;1.10;99.90;;;;;;5086603;28;20591;-76
2023/03/12 06:03:47;;;;;;;5.63;2.35;;;1.10;99.90;;;;;;5086555;28;20398;-76
2023/03/12 06:06:13;;;;;;;7.33;2.50;;;1.10;99.90;;;;;;5062618;28;20444;-76
2023/03/12 06:08:40;;;;;;;5.22;2.50;;;1.10;99.90;;;;;;5087782;28;20396;-77
2023/03/12 06:11:05;;;;;;;6.90;2.92;;;1.10;99.90;;;;;;5083407;28;20505;-77
2023/03/12 06:13:31;;;;;;;6.10;2.90;;;1.20;99.90;;;;;;5069299;28;20484;-77
2023/03/12 06:16:18;;;;;;;6.07;2.53;;;1.20;99.90;;;;;;5091544;28;20401;-77
2023/03/12 06:18:44;;;;;;;8.10;2.95;;;1.20;99.90;;;;;;5084943;28;20430;-77
2023/03/12 06:21:17;;;;;;;5.47;2.83;;;1.30;99.90;;;;;;5089667;28;20402;-77
2023/03/12 06:23:42;;;;;;;5.13;3.00;;;1.20;99.90;;;;;;5093074;28;20409;-77
2023/03/12 06:26:10;;;;;;;6.03;2.60;;;1.30;99.90;;;;;;5094676;28;20409;-77
2023/03/12 06:28:36;;;;;;;4.88;2.50;;;1.30;99.90;;;;;;5094314;28;20477;-78
2023/03/12 06:31:02;;;;;;;8.23;2.83;;;1.30;99.90;;;;;;5091006;28;20811;-77
2023/03/12 06:33:27;;;;;;;4.80;2.60;;;1.30;99.90;;;;;;5090832;28;20484;-78
2023/03/12 06:35:58;;;;;;;7.10;3.23;;;1.30;99.90;;;;;;5089320;28;20511;-78
2023/03/12 06:38:24;;;;;;;7.05;3.13;;;1.30;99.90;;;;;;5086867;28;20433;-77
2023/03/12 06:41:17;;;;;;;6.13;2.78;;;1.30;99.90;;;;;;5079012;28;20404;-78
2023/03/12 06:43:43;;;;;;;8.00;3.25;;;1.30;99.90;;;;;;5086632;28;20989;-77
2023/03/12 06:46:13;;;;;;;9.83;3.63;;;1.30;99.90;;;;;;5082364;28;20449;-77
2023/03/12 06:48:40;;;;;;;6.93;3.30;;;1.30;99.90;;;;;;5082250;28;20926;-77
2023/03/12 06:51:10;;;;;;;8.70;3.47;;;1.30;99.90;;;;;;5087646;28;20397;-77
2023/03/12 06:53:36;;;;;;;7.07;3.53;;;1.40;99.90;;;;;;5087386;28;20409;-78
2023/03/12 06:56:02;;;;;;;8.45;4.03;;;1.40;99.90;;;;;;5083899;28;20406;-77
2023/03/12 06:58:28;;;;;;;8.77;3.55;;;1.40;99.90;;;;;;5058782;28;20443;-77
2023/03/12 07:00:54;;;;;;;8.00;3.43;;;1.40;99.90;;;;;;5085697;28;20398;-76
2023/03/12 07:03:20;;;;;;;9.07;3.90;;;1.40;99.90;;;;;;5090703;28;20903;-76
2023/03/12 07:05:47;;;;;;;5.55;3.20;;;1.40;99.90;;;;;;5089697;28;20394;-77
2023/03/12 07:08:13;;;;;;;9.17;3.83;;;1.50;99.90;;;;;;5093836;28;20481;-77
2023/03/12 07:10:39;;;;;;;7.07;3.35;;;1.50;99.90;;;;;;5092099;28;20410;-77
2023/03/12 07:13:06;;;;;;;7.22;3.55;;;1.60;99.90;;;;;;5112873;28;20406;-77
2023/03/12 07:15:32;;;;;;;7.75;3.70;;;1.60;99.90;;;;;;5091805;28;20401;-77
2023/03/12 07:18:04;;;;;;;14.02;4.05;;;1.60;99.90;;;;;;5090093;28;20430;-76
2023/03/12 07:20:31;;;;;;;7.90;4.05;;;1.70;99.90;;;;;;5080835;28;20406;-77
2023/03/12 07:22:57;;;;;;;8.00;3.50;;;1.70;99.90;;;;;;5090856;28;20432;-77
2023/03/12 07:25:23;;;;;;;9.20;3.40;;;1.80;99.90;;;;;;5089642;28;20483;-77
2023/03/12 07:27:48;;;;;;;10.30;3.60;;;1.70;99.90;;;;;;5091055;28;20441;-77
2023/03/12 07:30:14;;;;;;;7.35;3.72;;;1.80;99.90;;;;;;5090086;28;20915;-76
2023/03/12 07:32:40;;;;;;;10.85;3.72;;;1.80;99.90;;;;;;5090859;28;20401;-77
2023/03/12 07:35:06;;;;;;;6.70;3.37;;;1.80;99.90;;;;;;5092950;28;20437;-77
2023/03/12 07:37:31;;;;;;;8.60;3.43;;;1.90;99.90;;;;;;5091907;28;20396;-77
2023/03/12 07:39:57;;;;;;;7.38;3.58;;;1.90;99.90;;;;;;5093640;28;20425;-77
2023/03/12 07:42:23;;;;;;;6.63;3.50;;;2.00;99.90;;;;;;5092039;28;20406;-77
2023/03/12 07:44:49;;;;;;;6.75;3.47;;;2.00;99.90;;;;;;5079034;28;20445;-77
2023/03/12 07:47:14;;;;;;;6.60;3.30;;;2.10;99.90;;;;;;5090706;28;20524;-77
2023/03/12 07:49:40;;;;;;;7.67;3.50;;;2.10;99.90;;;;;;5090203;28;20560;-77
2023/03/12 07:52:10;;;;;;;6.97;3.10;;;2.10;99.90;;;;;;5072781;28;20422;-77
2023/03/12 07:54:36;;;;;;;7.73;3.43;;;2.10;99.90;;;;;;5089608;28;20406;-77
2023/03/12 07:57:03;;;;;;;6.95;3.53;;;2.20;99.90;;;;;;5090732;28;20506;-77
2023/03/12 07:59:32;;;;;;;7.53;3.30;;;2.20;99.90;;;;;;5090958;28;20835;-77
2023/03/12 08:01:58;;;;;;;8.98;3.88;;;2.10;99.90;;;;;;5091892;28;20778;-77
2023/03/12 08:04:23;;;;;;;7.88;3.67;;;2.10;99.90;;;;;;5081274;28;20398;-77
2023/03/12 08:06:49;;;;;;;9.47;3.67;;;2.10;99.90;;;;;;5090360;28;20434;-76
2023/03/12 08:09:14;;;;;;;7.35;3.50;;;2.10;99.90;;;;;;5090375;28;20402;-76
2023/03/12 08:11:41;;;;;;;8.30;4.00;;;2.20;99.90;;;;;;5091905;28;20414;-76
2023/03/12 08:14:06;;;;;;;7.65;3.83;;;2.20;99.90;;;;;;5091569;28;20929;-76
2023/03/12 08:16:32;;;;;;;9.90;4.10;;;2.20;99.90;;;;;;5082927;28;20410;-77
2023/03/12 08:18:58;;;;;;;8.93;4.00;;;2.30;99.90;;;;;;5073291;28;20430;-77
2023/03/12 08:21:24;;;;;;;10.18;3.80;;;2.30;99.90;;;;;;5074935;28;20489;-77
2023/03/12 08:23:49;;;;;;;8.15;3.88;;;2.40;99.90;;;;;;5084595;28;20501;-78
2023/03/12 08:26:15;;;;;;;9.83;4.30;;;2.40;99.90;;;;;;5085147;28;20422;-77
2023/03/12 08:28:40;;;;;;;8.20;4.28;;;2.40;99.90;;;;;;5088640;28;20950;-76
2023/03/12 08:31:08;;;;;;;8.25;4.10;;;2.40;99.90;;;;;;5090586;28;20459;-76
2023/03/12 08:33:34;;;;;;;7.97;3.95;;;2.40;99.90;;;;;;5083410;28;20433;-77
2023/03/12 08:35:59;;;;;;;9.30;4.57;;;2.30;99.90;;;;;;5087032;28;20516;-78
2023/03/12 08:38:26;;;;;;;9.77;4.80;;;2.30;99.90;;;;;;5093869;28;20479;-78
2023/03/12 08:40:59;;;;;;;7.67;3.93;;;2.30;99.90;;;;;;5088000;28;20516;-78
2023/03/12 08:43:26;;;;;;;7.27;4.53;;;2.30;99.90;;;;;;5088013;28;20398;-78
2023/03/12 08:45:58;;;;;;;8.07;4.57;;;2.30;99.90;;;;;;5088249;28;20426;-78
2023/03/12 08:48:24;;;;;;;9.80;4.95;;;2.30;99.90;;;;;;5093564;28;20432;-78
2023/03/12 08:50:50;;;;;;;9.93;5.20;;;2.30;99.90;;;;;;5087414;28;20410;-77
2023/03/12 08:53:16;;;;;;;10.33;4.93;;;2.30;99.90;;;;;;5085685;28;21247;-76
2023/03/12 08:55:42;;;;;;;10.38;4.53;;;2.30;99.90;;;;;;5082425;28;20406;-77
2023/03/12 08:58:08;;;;;;;7.82;4.38;;;2.30;99.90;;;;;;5092604;28;20426;-77
2023/03/12 09:00:34;;;;;;;8.65;5.10;;;2.20;99.90;;;;;;5085453;28;20513;-78
2023/03/12 09:02:59;;;;;;;9.53;4.80;;;2.20;99.90;;;;;;5092911;28;20398;-77
2023/03/12 09:05:28;;;;;;;13.43;5.43;;;2.20;99.90;;;;;;5068970;28;20397;-79
2023/03/12 09:07:56;;;;;;;9.27;5.22;;;2.20;99.90;;;;;;5082557;28;21273;-78
2023/03/12 09:10:21;;;;;;;10.77;5.70;;;2.10;99.90;;;;;;5080662;28;20419;-77
2023/03/12 09:12:47;;;;;;;7.85;5.10;;;2.10;99.90;;;;;;5076103;28;20758;-77
2023/03/12 09:15:13;;;;;;;10.65;5.70;;;2.10;99.90;;;;;;5079723;28;20463;-77
2023/03/12 09:17:39;;;;;;;9.40;5.37;;;2.10;99.90;;;;;;5083051;28;20986;-78
2023/03/12 09:20:07;;;;;;;8.18;5.22;;;2.10;99.90;;;;;;5060874;28;20435;-77
2023/03/12 09:22:35;;;;;;;8.68;5.25;;;2.10;99.90;;;;;;5072046;28;20442;-77
2023/03/12 09:25:03;;;;;;;8.40;5.35;;;2.10;99.90;;;;;;5081613;28;20447;-78
2023/03/12 09:27:29;;;;;;;9.85;5.55;;;2.10;99.90;;;;;;5083044;28;20501;-77
2023/03/12 09:29:54;;;;;;;10.88;5.88;;;2.10;99.90;;;;;;5086926;28;20485;-77
2023/03/12 09:32:20;;;;;;;9.85;6.03;;;2.10;99.90;;;;;;5083444;28;20402;-78
2023/03/12 09:34:45;;;;;;;8.80;5.47;;;2.10;99.90;;;;;;5076256;28;20432;-77
2023/03/12 09:37:11;;;;;;;10.75;5.80;;;2.10;99.90;;;;;;5086266;28;20967;-77
2023/03/12 09:39:37;;;;;;;9.33;5.70;;;2.10;99.90;;;;;;5088012;28;20485;-78
2023/03/12 09:42:05;;;;;;;11.10;5.70;;;2.10;99.90;;;;;;5092181;28;20416;-79
2023/03/12 09:44:35;;;;;;;9.90;6.10;;;2.10;99.90;;;;;;5094966;28;20434;-76
2023/03/12 09:47:41;;;;;;;10.63;6.63;;;2.10;99.90;;;;;;5089134;28;20402;-77
2023/03/12 09:50:39;;;;;;;10.90;6.75;;;2.10;99.90;;;;;;5083969;28;20442;-78
2023/03/12 09:53:17;;;;;;;12.85;7.22;;;2.10;99.90;;;;;;5081735;27;20453;-77
2023/03/12 09:55:46;;;;;;;13.05;6.95;;;2.10;99.90;;;;;;5095115;28;20539;-78
2023/03/12 09:58:16;;;;;;;12.05;7.22;;;2.10;99.90;;;;;;5091985;28;20440;-76
2023/03/12 10:00:41;;;;;;;10.85;6.97;;;2.10;99.90;;;;;;5102687;28;20404;-77
2023/03/12 10:03:29;;;;;;;10.35;7.28;;;2.10;99.90;;;;;;5096982;28;20443;-76
2023/03/12 10:06:15;;;;;;;12.00;7.00;;;2.10;99.90;;;;;;5100158;28;20408;-76
2023/03/12 10:09:05;;;;;;;11.70;6.80;;;2.10;99.90;;;;;;5085351;28;21273;-78
2023/03/12 10:11:38;;;;;;;11.00;6.72;;;2.10;99.90;;;;;;5095074;28;20991;-78
2023/03/12 10:14:20;;;;;;;10.18;6.40;;;2.10;99.90;;;;;;5091227;28;20486;-77
2023/03/12 10:17:19;;;;;;;12.30;6.82;;;2.10;99.90;;;;;;5086675;28;20430;-77
2023/03/12 10:20:22;;;;;;;8.68;5.80;;;2.10;99.90;;;;;;5070900;28;20437;-77
2023/03/12 10:23:18;;;;;;;11.40;6.13;;;2.10;99.90;;;;;;5079800;28;20418;-77
2023/03/12 10:25:57;;;;;;;10.98;6.20;;;2.10;99.90;;;;;;5087160;28;20410;-77
2023/03/12 10:28:56;;;;;;;11.43;7.13;;;2.10;99.90;;;;;;5096386;28;20422;-77
2023/03/12 10:31:33;;;;;;;14.45;6.72;;;2.10;99.90;;;;;;5068182;28;20467;-76
2023/03/12 10:34:01;;;;;;;9.00;6.32;;;2.10;99.90;;;;;;5069282;28;20803;-76
2023/03/12 10:36:32;;;;;;;13.05;6.93;;;2.10;99.90;;;;;;5090643;28;20540;-76
2023/03/12 10:38:58;;;;;;;11.60;7.43;;;2.20;99.90;;;;;;5090208;28;20434;-78
2023/03/12 10:41:28;;;;;;;10.03;6.90;;;2.20;99.90;;;;;;5091743;28;20394;-78
2023/03/12 10:43:59;;;;;;;11.10;6.95;;;2.20;99.90;;;;;;5091225;28;20418;-78
2023/03/12 10:46:37;;;;;;;10.50;6.97;;;2.30;99.90;;;;;;5087140;28;20412;-79
2023/03/12 10:49:21;;;;;;;11.45;7.40;;;2.30;99.90;;;;;;5091602;28;20491;-76
2023/03/12 10:51:57;;;;;;;12.50;7.68;;;2.30;99.90;;;;;;5089179;28;20427;-77
2023/03/12 10:54:27;;;;;;;13.13;7.60;;;2.30;99.90;;;;;;5091784;28;20867;-77
2023/03/12 10:56:53;;;;;;;12.70;7.70;;;2.40;99.90;;;;;;5090763;28;20433;-78
2023/03/12 10:59:26;;;;;;;11.18;7.45;;;2.30;99.90;;;;;;5087568;28;20935;-77
2023/03/12 11:01:52;;;;;;;12.43;8.30;;;2.40;99.90;;;;;;5088621;28;20409;-78
2023/03/12 11:04:27;;;;;;;11.20;8.13;;;2.30;99.90;;;;;;5087758;28;20412;-76
2023/03/12 11:07:19;;;;;;;13.23;8.65;;;2.30;99.90;;;;;;5090549;28;20418;-76
2023/03/12 11:09:45;;;;;;;13.07;8.57;;;2.40;99.90;;;;;;5068064;28;20498;-76
2023/03/12 11:12:26;;;;;;;13.07;8.63;;;2.40;99.90;;;;;;5091440;28;20455;-76
2023/03/12 11:14:52;;;;;;;11.35;8.02;;;2.40;99.90;;;;;;5087606;28;20440;-77
2023/03/12 11:17:28;;;;;;;13.60;8.70;;;2.40;99.90;;;;;;5080818;28;20421;-78
2023/03/12 11:19:55;;;;;;;15.77;8.55;;;2.40;99.90;;;;;;5091477;28;20505;-77
2023/03/12 11:22:32;;;;;;;13.50;8.02;;;2.40;99.90;;;;;;5091257;28;21263;-77
2023/03/12 11:25:00;;;;;;;11.98;7.78;;;2.40;99.90;;;;;;5090372;28;20494;-77
2023/03/12 11:27:34;;;;;;;12.27;8.27;;;2.40;99.90;;;;;;5091638;28;20477;-76
2023/03/12 11:30:04;;;;;;;12.50;8.23;;;2.50;99.90;;;;;;5091777;28;20398;-77
2023/03/12 11:32:37;;;;;;;13.02;8.70;;;2.50;99.90;;;;;;5091871;28;20483;-79
2023/03/12 11:35:08;;;;;;;12.77;8.30;;;2.50;99.90;;;;;;5092765;28;20803;-77
2023/03/12 11:37:40;;;;;;;11.77;7.77;;;2.50;99.90;;;;;;5091275;28;20398;-79
2023/03/12 11:40:45;;;;;;;11.35;8.02;;;2.50;99.90;;;;;;5092626;28;20443;-79
2023/03/12 11:43:25;;;;;;;11.07;7.95;;;2.60;99.90;;;;;;5091578;28;20745;-79
2023/03/12 11:46:10;;;;;;;16.15;8.63;;;2.60;99.90;;;;;;5090178;28;20463;-79
2023/03/12 11:48:38;;;;;;;13.52;8.40;;;2.60;99.90;;;;;;5090891;28;20450;-77
2023/03/12 11:51:07;;;;;;;16.65;8.73;;;2.60;99.90;;;;;;5090285;28;20410;-77
2023/03/12 11:53:51;;;;;;;13.15;8.52;;;2.60;99.90;;;;;;5119647;27;20482;-79
2023/03/12 11:56:35;;;;;;;15.77;9.05;;;2.60;99.90;;;;;;5091571;28;20420;-77
2023/03/12 11:59:27;;;;;;;13.57;8.88;;;2.70;99.90;;;;;;5090289;28;20475;-78
2023/03/12 12:02:16;;;;;;;15.67;9.70;;;2.90;99.90;;;;;;5080497;28;20440;-77
2023/03/12 12:04:44;;;;;;;14.60;9.55;;;2.80;99.90;;;;;;5091516;28;20866;-78
2023/03/12 12:07:35;;;;;;;12.45;8.93;;;2.90;99.90;;;;;;5091574;28;20402;-78
2023/03/12 12:10:52;;;;;;;15.52;8.88;;;2.90;99.90;;;;;;5081439;28;20412;-78
2023/03/12 12:13:23;;;;;;;15.98;9.57;;;3.00;99.90;;;;;;5077397;28;20413;-78
2023/03/12 12:16:27;;;;;;;17.20;9.60;;;3.10;99.90;;;;;;5088872;28;20414;-78
2023/03/12 12:19:14;;;;;;;16.60;9.73;;;3.10;99.90;;;;;;5089707;28;20928;-78
2023/03/12 12:22:04;;;;;;;16.73;9.32;;;3.10;99.90;;;;;;5090675;28;20418;-76
2023/03/12 12:24:45;;;;;;;15.18;9.80;;;3.10;99.90;;;;;;5088001;28;20410;-76
2023/03/12 12:27:26;;;;;;;15.82;9.95;;;3.30;99.90;;;;;;5088058;28;20437;-76
2023/03/12 12:30:07;;;;;;;16.08;9.68;;;3.30;99.90;;;;;;5088849;28;20426;-76
2023/03/12 12:32:52;;;;;;;16.58;9.52;;;3.40;99.90;;;;;;5069438;28;20502;-77
2023/03/12 12:35:26;;;;;;;16.75;9.95;;;3.50;99.90;;;;;;5087402;28;20437;-76
2023/03/12 12:38:13;;;;;;;15.07;9.52;;;3.60;99.90;;;;;;5088764;28;20548;-77
2023/03/12 12:40:44;;;;;;;15.97;9.43;;;3.60;99.90;;;;;;5089982;28;20505;-77
2023/03/12 12:43:27;;;;;;;17.92;9.77;;;3.70;99.90;;;;;;5091266;28;20458;-77
2023/03/12 12:45:57;;;;;;;17.33;9.73;;;3.70;99.90;;;;;;5079853;28;20410;-77
2023/03/12 12:48:37;;;;;;;16.48;10.10;;;3.80;99.90;;;;;;5088790;28;20406;-77
2023/03/12 12:51:04;;;;;;;18.15;9.95;;;3.80;99.90;;;;;;5082617;28;20410;-78
2023/03/12 12:53:55;;;;;;;16.95;10.35;;;3.90;99.90;;;;;;5088187;28;20911;-78
2023/03/12 12:56:40;;;;;;;18.17;10.60;;;3.90;99.90;;;;;;5089509;28;20471;-77
2023/03/12 12:59:09;;;;;;;18.60;10.40;;;3.90;99.90;;;;;;5089357;28;20417;-77
2023/03/12 13:01:36;;;;;;;21.48;10.60;;;4.00;99.90;;;;;;5100387;28;20502;-77
2023/03/12 13:04:08;;;;;;;19.15;10.85;;;4.00;99.90;;;;;;5087705;28;20832;-78
2023/03/12 13:07:12;;;;;;;17.60;10.37;;;4.00;99.90;;;;;;5090288;28;21146;-78
2023/03/12 13:09:46;;;;;;;20.30;10.07;;;4.10;99.90;;;;;;5023884;28;20412;-78